createdAt,value
2023-02-15T00:02:34.180Z,50.60
2023-02-15T00:07:38.103Z,55.80
2023-02-15T00:12:43.054Z,55.50
2023-02-15T00:17:46.919Z,53.10
2023-02-15T00:22:50.675Z,49.30
2023-02-15T00:27:54.940Z,48.40
2023-02-15T00:32:58.696Z,54.10
2023-02-15T00:38:03.012Z,53.00
2023-02-15T00:43:07.752Z,59.10
2023-02-15T00:48:12.895Z,63.00
2023-02-15T00:53:16.998Z,56.80
2023-02-15T00:58:20.862Z,56.50
2023-02-15T01:03:24.698Z,61.50
2023-02-15T01:08:29.048Z,55.40
2023-02-15T01:13:33.584Z,56.20
2023-02-15T01:18:37.540Z,60.20
2023-02-15T01:23:42.813Z,61.60
2023-02-15T01:28:46.932Z,62.20
2023-02-15T01:33:50.715Z,62.70
2023-02-15T01:38:55.495Z,64.30
2023-02-15T01:44:01.477Z,59.20
2023-02-15T01:49:20.626Z,59.90
2023-02-15T01:54:37.262Z,56.10
2023-02-15T01:59:44.897Z,61.40
2023-02-15T02:04:50.975Z,69.40
2023-02-15T02:09:56.164Z,64.10
2023-02-15T02:15:02.117Z,67.40
2023-02-15T02:20:48.386Z,58.00
2023-02-15T02:26:25.646Z,58.40
2023-02-15T02:32:11.148Z,57.50
2023-02-15T02:37:40.809Z,54.50
2023-02-15T02:43:13.127Z,55.40
2023-02-15T02:48:21.771Z,68.10
2023-02-15T02:53:27.632Z,61.20
2023-02-15T02:59:00.036Z,61.60
2023-02-15T03:04:13.896Z,61.40
2023-02-15T03:09:25.559Z,58.20
2023-02-15T03:14:29.783Z,64.20
2023-02-15T03:19:35.954Z,53.00
2023-02-15T03:25:18.784Z,58.70
2023-02-15T03:30:30.152Z,55.80
2023-02-15T03:35:47.224Z,56.60
2023-02-15T03:41:10.639Z,52.20
2023-02-15T03:46:22.841Z,50.20
2023-02-15T03:51:39.263Z,45.10
2023-02-15T03:57:04.051Z,49.30
2023-02-15T04:02:22.551Z,51.70
2023-02-15T04:07:26.846Z,48.80
2023-02-15T04:12:30.627Z,39.70
2023-02-15T04:17:34.613Z,40.60
2023-02-15T04:22:56.974Z,42.90
2023-02-15T04:28:01.330Z,34.60
2023-02-15T04:33:05.288Z,43.80
2023-02-15T04:38:09.107Z,40.80
2023-02-15T04:43:12.895Z,41.50
2023-02-15T04:48:20.558Z,39.60
2023-02-15T04:53:24.276Z,42.80
2023-02-15T04:58:29.310Z,46.60
2023-02-15T05:03:33.450Z,44.90
2023-02-15T05:08:37.534Z,44.50
2023-02-15T05:13:41.171Z,47.40
2023-02-15T05:18:45.272Z,39.20
2023-02-15T05:23:49.063Z,51.60
2023-02-15T05:28:52.817Z,41.20
2023-02-15T05:33:56.629Z,47.70
2023-02-15T05:39:00.959Z,52.00
2023-02-15T05:44:04.809Z,48.10
2023-02-15T05:49:09.275Z,46.30
2023-02-15T05:54:15.988Z,55.10
2023-02-15T05:59:20.961Z,51.90
2023-02-15T06:04:24.848Z,53.80
2023-02-15T06:09:28.589Z,56.50
2023-02-15T06:14:35.555Z,55.80
2023-02-15T06:19:42.279Z,55.60
2023-02-15T06:24:46.076Z,60.60
2023-02-15T06:29:49.787Z,59.80
2023-02-15T06:34:53.665Z,62.90
2023-02-15T06:40:03.221Z,58.90
2023-02-15T06:45:10.913Z,64.20
2023-02-15T06:50:14.619Z,68.30
2023-02-15T06:55:18.576Z,66.50
2023-02-15T07:00:24.395Z,67.80
2023-02-15T07:05:33.064Z,60.00
2023-02-15T07:10:36.823Z,64.30
2023-02-15T07:15:40.609Z,73.50
2023-02-15T07:20:44.425Z,66.60
2023-02-15T07:25:48.178Z,71.80
2023-02-15T07:30:52.791Z,58.70
2023-02-15T07:36:02.552Z,75.50
2023-02-15T07:41:08.989Z,74.00
2023-02-15T07:46:15.148Z,66.70
2023-02-15T07:51:19.011Z,72.40
2023-02-15T07:56:22.646Z,62.60
2023-02-15T08:01:32.482Z,53.30
2023-02-15T08:06:38.692Z,49.90
2023-02-15T08:11:42.853Z,55.00
2023-02-15T08:16:51.711Z,54.50
2023-02-15T08:22:06.933Z,53.70
2023-02-15T08:27:12.531Z,60.30
2023-02-15T08:32:16.502Z,54.90
2023-02-15T08:37:20.449Z,56.20
2023-02-15T08:42:24.388Z,51.30
2023-02-15T08:47:28.197Z,48.50
2023-02-15T08:52:32.464Z,53.40
2023-02-15T08:57:36.214Z,48.00
2023-02-15T09:02:40.071Z,52.90
2023-02-15T09:07:43.866Z,48.90
2023-02-15T09:12:47.749Z,47.10
2023-02-15T09:17:51.663Z,44.60
2023-02-15T09:22:58.080Z,42.60
2023-02-15T09:28:02.791Z,46.10
2023-02-15T09:33:06.457Z,42.20
2023-02-15T09:38:13.205Z,44.40
2023-02-15T09:43:44.906Z,40.70
2023-02-15T09:48:55.950Z,39.10
2023-02-15T09:54:28.523Z,43.10
2023-02-15T10:04:58.737Z,40.30
2023-02-15T10:10:28.650Z,42.90
2023-02-15T10:15:40.135Z,39.50
2023-02-15T10:21:04.692Z,40.10
2023-02-15T10:26:18.450Z,40.80
2023-02-15T10:31:32.358Z,42.20
2023-02-15T10:36:41.905Z,38.30
2023-02-15T10:42:08.646Z,39.00
2023-02-15T10:47:39.977Z,33.40
2023-02-15T10:53:28.012Z,40.10
2023-02-15T10:59:09.299Z,41.40
2023-02-15T11:04:40.427Z,37.40
2023-02-15T11:09:49.867Z,34.50
2023-02-15T11:14:58.068Z,37.90
2023-02-15T11:20:17.259Z,37.80
2023-02-15T11:25:26.027Z,37.90
2023-02-15T11:30:46.125Z,44.00
2023-02-15T11:36:00.791Z,37.80
2023-02-15T11:41:11.700Z,43.20
2023-02-15T11:46:16.294Z,38.40
2023-02-15T11:51:23.958Z,38.70
2023-02-15T11:56:27.996Z,37.50
2023-02-15T12:01:39.675Z,33.90
2023-02-15T12:06:50.097Z,38.80
2023-02-15T12:11:54.781Z,35.80
2023-02-15T12:16:58.771Z,39.20
2023-02-15T12:22:04.218Z,38.00
2023-02-15T12:27:17.045Z,36.90
2023-02-15T12:32:26.364Z,38.40
2023-02-15T12:37:33.990Z,40.40
2023-02-15T12:42:46.229Z,39.60
2023-02-15T12:48:17.181Z,59.20
2023-02-15T12:53:25.711Z,46.10
2023-02-15T12:58:31.774Z,38.10
2023-02-15T13:03:36.682Z,35.30
2023-02-15T13:08:53.264Z,38.20
2023-02-15T13:13:59.979Z,40.70
2023-02-15T13:19:35.072Z,41.50
2023-02-15T13:24:45.551Z,40.70
2023-02-15T13:30:00.847Z,35.20
2023-02-15T13:35:08.403Z,40.40
2023-02-15T13:40:17.396Z,33.20
2023-02-15T13:45:57.152Z,37.90
2023-02-15T13:51:14.932Z,35.30
2023-02-15T13:56:46.266Z,39.00
2023-02-15T14:02:00.402Z,38.50
2023-02-15T14:07:28.443Z,33.30
2023-02-15T14:13:12.239Z,32.70
2023-02-15T14:18:38.924Z,37.70
2023-02-15T14:24:31.496Z,38.60
2023-02-15T14:29:46.924Z,45.00
2023-02-15T14:34:54.736Z,33.90
2023-02-15T14:40:55.704Z,41.60
2023-02-15T14:46:33.261Z,31.80
2023-02-15T14:52:09.370Z,38.80
2023-02-15T14:57:14.394Z,39.60
2023-02-15T15:03:05.781Z,35.70
2023-02-15T15:08:24.309Z,32.10
2023-02-15T15:20:08.585Z,36.10
2023-02-15T15:25:32.633Z,35.20
2023-02-15T15:30:36.441Z,35.40
2023-02-15T15:35:58.776Z,36.80
2023-02-15T15:41:31.775Z,39.40
2023-02-15T15:47:30.248Z,40.60
2023-02-15T15:52:40.746Z,36.00
2023-02-15T15:57:47.957Z,30.70
2023-02-15T16:02:54.507Z,39.50
2023-02-15T16:07:59.224Z,38.00
2023-02-15T16:13:04.393Z,42.90
2023-02-15T16:18:16.853Z,53.00
2023-02-15T16:23:56.246Z,62.80
2023-02-15T16:29:01.278Z,57.80
2023-02-15T16:34:16.746Z,54.90
2023-02-15T16:39:22.973Z,61.20
2023-02-15T16:44:34.889Z,57.90
2023-02-15T16:49:40.901Z,53.80
2023-02-15T16:54:46.905Z,58.30
2023-02-15T16:59:54.181Z,63.20
2023-02-15T17:05:15.545Z,65.40
2023-02-15T17:10:40.732Z,67.20
2023-02-15T17:16:09.148Z,68.80
2023-02-15T17:21:19.836Z,64.30
2023-02-15T17:26:31.683Z,60.40
2023-02-15T17:31:38.944Z,62.00
2023-02-15T17:37:04.245Z,65.90
2023-02-15T17:42:09.903Z,82.30
2023-02-15T17:47:22.790Z,118.50
2023-02-15T17:52:29.708Z,158.50
2023-02-15T17:57:35.830Z,132.40
2023-02-15T18:03:02.057Z,129.20
2023-02-15T18:08:34.360Z,124.70
2023-02-15T18:13:39.664Z,107.40
2023-02-15T18:18:46.892Z,137.60
2023-02-15T18:23:54.630Z,174.00
2023-02-15T18:29:01.186Z,130.60
2023-02-15T18:34:47.957Z,137.30
2023-02-15T18:39:55.356Z,131.20
2023-02-15T18:45:38.865Z,134.30
2023-02-15T18:50:46.897Z,142.00
2023-02-15T18:55:53.622Z,151.60
2023-02-15T19:01:03.714Z,172.10
2023-02-15T19:06:18.576Z,153.50
2023-02-15T19:11:28.489Z,145.60
2023-02-15T19:16:38.812Z,142.70
2023-02-15T19:21:49.168Z,119.80
2023-02-15T19:26:56.561Z,108.70
2023-02-15T19:32:04.199Z,99.70
2023-02-15T19:37:27.959Z,102.90
2023-02-15T19:42:36.521Z,105.00
2023-02-15T19:47:42.877Z,104.30
2023-02-15T19:52:49.269Z,99.30
2023-02-15T19:57:58.283Z,90.50
2023-02-15T20:03:08.161Z,90.90
2023-02-15T20:08:23.609Z,97.90
2023-02-15T20:13:35.716Z,94.50
2023-02-15T20:18:49.346Z,91.30
2023-02-15T20:23:58.652Z,106.80
2023-02-15T20:29:04.402Z,107.00
2023-02-15T20:34:12.380Z,110.10
2023-02-15T20:39:21.517Z,123.30
2023-02-15T20:44:32.420Z,99.80
2023-02-15T20:49:39.440Z,98.90
2023-02-15T20:54:45.803Z,104.60
2023-02-15T20:59:52.681Z,95.70
2023-02-15T21:04:59.107Z,101.50
2023-02-15T21:10:07.068Z,106.90
2023-02-15T21:15:42.202Z,107.80
2023-02-15T21:20:50.783Z,103.20
2023-02-15T21:26:01.488Z,88.20
2023-02-15T21:31:13.751Z,108.50
2023-02-15T21:36:24.064Z,100.50
2023-02-15T21:41:48.515Z,102.60
2023-02-15T21:47:13.211Z,96.00
2023-02-15T21:52:23.330Z,95.10
2023-02-15T21:57:28.023Z,110.80
2023-02-15T22:02:34.602Z,111.60
2023-02-15T22:07:39.784Z,111.30
2023-02-15T22:12:44.260Z,115.10
2023-02-15T22:17:49.225Z,114.60
2023-02-15T22:22:54.660Z,114.10
2023-02-15T22:27:58.349Z,111.10
2023-02-15T22:33:02.178Z,117.70
2023-02-15T22:38:06.721Z,113.90
2023-02-15T22:43:23.079Z,105.70
2023-02-15T22:48:27.846Z,105.80
2023-02-15T22:53:31.863Z,98.40
2023-02-15T22:58:35.818Z,108.60
2023-02-15T23:03:41.420Z,110.20
2023-02-15T23:08:47.528Z,110.20
2023-02-15T23:13:51.705Z,116.20
2023-02-15T23:18:56.258Z,118.80
2023-02-15T23:24:15.420Z,115.90
2023-02-15T23:29:22.052Z,115.20
2023-02-15T23:34:32.039Z,146.30
2023-02-15T23:39:54.462Z,114.10
2023-02-15T23:44:58.851Z,130.20
2023-02-15T23:50:02.898Z,133.00
2023-02-15T23:55:06.945Z,144.00
